Bath, Maine
Current Conditions -  °F | °C
As of 8:53 PM on Saturday 20 Dec 2014 (Local Time) from KIWI Reporting Station
Overcast Overcast  
Wind Chill: 23°   Ceiling: 1300
Heat Index: 23°   Visibility: 10mi
Dew Point: 17°   Wind: 3mph
Humidity: 78%   Direction: NA
Pressure: 30.4"   Gusts: NA
Location:  43.91°N, 69.81°W
Report Text: KIWI 210153Z AUTO VRB03KT 10SM OVC013 M05/M08 A3040 RMK AO2 SLP294 T10501083
Loading
Personal Weather Stations






























Interactive Weather Map New forecast layout! Learn more

10-Day Weather Forecast

Advertisements
Track Severe Weather on mobile